Time;durP1;ratioP1;P1;durP2;ratioP2;P2;SDS_P1;SDS_P2;PMS_P1;PMS_P2;Temp;Humidity;BMP_temperature;BMP_pressure;BME280_temperature;BME280_humidity;BME280_pressure;Samples;Min_cycle;Max_cycle;Signal;HPM_P1;HPM_P2
2022/04/25 00:00:44;;;;;;;14.10;8.07;;;8.10;99.90;;;;;;5071515;28;20044;-61
2022/04/25 00:03:10;;;;;;;16.33;8.35;;;8.10;99.90;;;;;;5072708;28;20048;-61
2022/04/25 00:05:36;;;;;;;12.27;8.23;;;8.10;99.90;;;;;;5073288;28;20076;-61
2022/04/25 00:08:02;;;;;;;13.68;8.55;;;8.10;99.90;;;;;;5072197;28;20048;-61
2022/04/25 00:10:27;;;;;;;13.50;8.50;;;8.20;99.90;;;;;;5073453;28;20052;-60
2022/04/25 00:12:53;;;;;;;15.02;8.45;;;8.20;99.90;;;;;;5038833;28;20040;-61
2022/04/25 00:15:20;;;;;;;14.73;9.15;;;8.20;99.90;;;;;;5055661;28;20075;-61
2022/04/25 00:17:46;;;;;;;15.55;8.45;;;8.20;99.90;;;;;;5072800;28;20094;-61
2022/04/25 00:20:13;;;;;;;15.07;8.40;;;8.20;99.90;;;;;;5073116;28;20052;-61
2022/04/25 00:22:39;;;;;;;14.38;8.65;;;8.20;99.90;;;;;;5071508;28;20076;-62
2022/04/25 00:25:05;;;;;;;13.75;8.23;;;8.20;99.90;;;;;;5073256;28;20087;-61
2022/04/25 00:27:30;;;;;;;17.45;8.93;;;8.20;99.90;;;;;;5072880;28;20044;-61
2022/04/25 00:29:56;;;;;;;14.85;8.63;;;8.20;99.90;;;;;;5072295;28;20189;-61
2022/04/25 00:32:23;;;;;;;13.15;8.45;;;8.20;99.90;;;;;;5072053;28;20486;-61
2022/04/25 00:34:49;;;;;;;14.73;9.02;;;8.20;99.90;;;;;;5072575;28;20049;-60
2022/04/25 00:37:15;;;;;;;14.15;8.93;;;8.20;99.90;;;;;;5073112;28;20127;-61
2022/04/25 00:39:41;;;;;;;13.50;9.15;;;8.30;99.90;;;;;;5054175;28;20175;-61
2022/04/25 00:42:07;;;;;;;13.68;8.60;;;8.30;99.90;;;;;;5072541;28;20045;-61
2022/04/25 00:44:33;;;;;;;16.55;9.48;;;8.30;99.90;;;;;;5071679;28;20051;-62
2022/04/25 00:47:00;;;;;;;14.27;9.68;;;8.30;99.90;;;;;;5072015;28;20679;-60
2022/04/25 00:49:26;;;;;;;16.48;9.60;;;8.30;99.90;;;;;;5072619;28;20401;-60
2022/04/25 00:51:51;;;;;;;15.40;8.75;;;8.40;99.90;;;;;;5070975;28;20044;-60
2022/04/25 00:54:19;;;;;;;18.13;10.50;;;8.30;99.90;;;;;;5072482;28;20419;-61
2022/04/25 00:56:46;;;;;;;13.85;9.75;;;8.40;99.90;;;;;;5071911;28;20048;-61
2022/04/25 00:59:15;;;;;;;14.18;9.38;;;8.40;99.90;;;;;;5072295;28;20444;-60
2022/04/25 01:01:41;;;;;;;15.77;10.27;;;8.40;99.90;;;;;;5054067;28;20062;-61
2022/04/25 01:04:07;;;;;;;15.05;9.82;;;8.30;99.90;;;;;;5071033;28;20116;-61
2022/04/25 01:06:33;;;;;;;14.77;9.93;;;8.30;99.90;;;;;;5072202;28;20466;-61
2022/04/25 01:08:58;;;;;;;15.70;10.15;;;8.30;99.90;;;;;;5071747;28;20084;-60
2022/04/25 01:11:25;;;;;;;15.68;10.13;;;8.30;99.90;;;;;;5071729;28;20091;-62
2022/04/25 01:13:50;;;;;;;17.95;11.07;;;8.30;99.90;;;;;;5071365;28;20052;-60
2022/04/25 01:16:17;;;;;;;14.98;10.05;;;8.30;99.90;;;;;;5054275;28;20044;-62
2022/04/25 01:18:42;;;;;;;16.13;10.20;;;8.20;99.90;;;;;;5071631;28;20056;-60
2022/04/25 01:21:12;;;;;;;15.80;10.32;;;8.20;99.90;;;;;;5071891;28;20062;-61
2022/04/25 01:29:08;;;;;;;15.90;9.77;;;8.20;99.90;;;;;;5071613;28;20048;-61
2022/04/25 01:31:33;;;;;;;15.65;10.18;;;8.20;99.90;;;;;;5070766;28;20059;-60
2022/04/25 01:33:59;;;;;;;16.83;9.65;;;8.20;99.90;;;;;;5069977;28;20049;-61
2022/04/25 01:36:25;;;;;;;14.30;10.70;;;8.20;99.90;;;;;;5053657;28;20579;-61
2022/04/25 01:38:52;;;;;;;16.52;10.07;;;8.20;99.90;;;;;;5070022;28;20085;-61
2022/04/25 01:41:18;;;;;;;15.25;10.65;;;8.20;99.90;;;;;;5069898;28;20067;-60
2022/04/25 01:43:44;;;;;;;15.57;10.20;;;8.20;99.90;;;;;;5071268;28;20056;-63
2022/04/25 01:46:10;;;;;;;17.60;11.10;;;8.10;99.90;;;;;;5037172;28;20048;-61
2022/04/25 01:48:36;;;;;;;18.20;10.98;;;8.10;99.90;;;;;;5070293;28;20137;-61
2022/04/25 01:51:02;;;;;;;19.83;11.30;;;8.10;99.90;;;;;;5053003;28;20513;-60
2022/04/25 01:53:29;;;;;;;16.15;10.60;;;8.10;99.90;;;;;;5071526;28;20366;-61
2022/04/25 01:55:55;;;;;;;14.60;10.93;;;8.00;99.90;;;;;;5069765;28;20033;-61
2022/04/25 01:58:21;;;;;;;18.27;11.23;;;8.10;99.90;;;;;;5053731;28;20048;-60
2022/04/25 02:00:47;;;;;;;16.00;11.15;;;8.00;99.90;;;;;;5070770;28;20044;-63
2022/04/25 02:03:13;;;;;;;17.95;10.60;;;8.10;99.90;;;;;;5053575;28;20127;-60
2022/04/25 02:05:39;;;;;;;15.43;10.20;;;8.10;99.90;;;;;;5071204;28;20044;-61
2022/04/25 02:08:05;;;;;;;14.48;9.82;;;8.10;99.90;;;;;;5069330;28;20543;-59
2022/04/25 02:10:31;;;;;;;14.88;9.48;;;8.10;99.90;;;;;;5069856;28;20080;-61
2022/04/25 02:12:57;;;;;;;13.25;9.15;;;8.10;99.90;;;;;;5069665;28;20088;-61
2022/04/25 02:15:23;;;;;;;15.18;9.57;;;8.10;99.90;;;;;;5070149;28;20091;-60
2022/04/25 02:17:49;;;;;;;15.27;9.23;;;8.10;99.90;;;;;;5069994;28;20401;-64
2022/04/25 02:20:15;;;;;;;13.55;8.82;;;8.10;99.90;;;;;;5069725;28;20051;-62
2022/04/25 02:22:41;;;;;;;13.98;9.60;;;8.10;99.90;;;;;;5069386;28;20485;-62
2022/04/25 02:25:07;;;;;;;13.02;8.55;;;8.10;99.90;;;;;;5070573;28;20091;-63
2022/04/25 02:27:32;;;;;;;17.50;8.68;;;8.10;99.90;;;;;;5071222;28;20044;-62
2022/04/25 02:29:58;;;;;;;19.40;8.65;;;8.10;99.90;;;;;;5070900;28;20578;-62
2022/04/25 02:32:28;;;;;;;14.20;8.88;;;8.10;99.90;;;;;;5071099;28;20041;-62
2022/04/25 02:34:57;;;;;;;15.30;8.70;;;8.00;99.90;;;;;;5070738;28;20493;-63
2022/04/25 02:37:23;;;;;;;11.50;7.50;;;8.10;99.90;;;;;;5070013;28;20072;-62
2022/04/25 02:39:50;;;;;;;13.50;7.35;;;8.10;99.90;;;;;;5071156;28;20048;-63
2022/04/25 02:42:16;;;;;;;12.75;7.80;;;8.00;99.90;;;;;;5070476;28;20094;-63
2022/04/25 02:44:42;;;;;;;15.95;8.48;;;8.10;99.90;;;;;;5069903;28;20502;-63
2022/04/25 02:47:11;;;;;;;12.60;8.05;;;8.00;99.90;;;;;;5070689;28;20036;-63
2022/04/25 02:49:37;;;;;;;14.15;8.00;;;8.10;99.90;;;;;;5069999;28;20043;-63
2022/04/25 02:52:04;;;;;;;13.85;8.15;;;8.10;99.90;;;;;;5069389;28;20044;-63
2022/04/25 02:54:29;;;;;;;12.43;8.30;;;8.10;99.90;;;;;;5070840;28;20498;-62
2022/04/25 02:56:55;;;;;;;12.63;7.68;;;8.10;99.90;;;;;;5069328;28;20051;-63
2022/04/25 02:59:21;;;;;;;11.70;7.60;;;8.10;99.90;;;;;;5071063;28;20102;-63
2022/04/25 03:01:47;;;;;;;13.82;8.20;;;8.10;99.90;;;;;;5070004;28;20059;-65
2022/04/25 03:04:12;;;;;;;11.82;7.63;;;8.10;99.90;;;;;;5069418;28;20321;-63
2022/04/25 03:06:38;;;;;;;14.43;8.13;;;8.10;99.90;;;;;;5069785;28;20045;-64
2022/04/25 03:09:05;;;;;;;11.63;8.32;;;8.10;99.90;;;;;;5070625;28;20040;-62
2022/04/25 03:11:30;;;;;;;10.45;7.07;;;8.10;99.90;;;;;;5070913;28;20048;-63
2022/04/25 03:13:56;;;;;;;11.07;7.30;;;8.10;99.90;;;;;;5070524;28;20501;-66
2022/04/25 03:16:22;;;;;;;11.90;7.13;;;8.10;99.90;;;;;;5053183;28;20125;-63
2022/04/25 03:18:48;;;;;;;11.80;6.80;;;8.10;99.90;;;;;;5070917;28;20079;-63
2022/04/25 03:21:14;;;;;;;9.30;6.80;;;8.20;99.90;;;;;;5068956;28;20453;-63
2022/04/25 03:23:39;;;;;;;11.68;6.72;;;8.20;99.90;;;;;;5069566;28;20380;-63
2022/04/25 03:26:06;;;;;;;11.27;6.72;;;8.10;99.90;;;;;;5069784;28;20048;-63
2022/04/25 03:28:32;;;;;;;10.65;6.43;;;8.10;99.90;;;;;;5069717;28;20051;-63
2022/04/25 03:30:58;;;;;;;13.05;7.53;;;8.10;99.90;;;;;;5069198;28;20048;-66
2022/04/25 03:33:24;;;;;;;9.98;7.15;;;8.10;99.90;;;;;;5053007;28;20099;-63
2022/04/25 03:35:51;;;;;;;10.10;7.43;;;8.00;99.90;;;;;;5055828;28;20060;-63
2022/04/25 03:38:21;;;;;;;18.55;8.27;;;8.00;99.90;;;;;;5072638;28;20044;-63
2022/04/25 03:40:47;;;;;;;12.43;7.55;;;8.00;99.90;;;;;;5074203;28;20074;-63
2022/04/25 03:43:14;;;;;;;12.52;8.18;;;7.90;99.90;;;;;;5073683;28;20132;-62
2022/04/25 03:45:41;;;;;;;11.80;7.95;;;7.90;99.90;;;;;;5073989;28;20055;-63
2022/04/25 03:48:07;;;;;;;14.63;8.63;;;8.00;99.90;;;;;;5055870;28;20052;-63
2022/04/25 03:50:33;;;;;;;12.80;8.00;;;8.00;99.90;;;;;;5072753;28;20489;-63
2022/04/25 03:53:08;;;;;;;16.77;8.40;;;8.00;99.90;;;;;;5072945;28;20166;-62
2022/04/25 03:58:19;;;;;;;15.45;8.38;;;8.00;99.90;;;;;;5072417;28;20091;-63
2022/04/25 04:00:44;;;;;;;15.48;7.78;;;7.90;99.90;;;;;;5073460;28;20052;-63
2022/04/25 04:03:12;;;;;;;10.95;7.05;;;7.90;99.90;;;;;;5039016;28;20109;-62
2022/04/25 04:05:40;;;;;;;12.15;7.28;;;7.80;99.90;;;;;;5073676;28;20048;-62
2022/04/25 04:08:06;;;;;;;10.95;7.18;;;7.80;99.90;;;;;;5071965;28;20049;-63
2022/04/25 04:10:32;;;;;;;16.15;7.85;;;7.80;99.90;;;;;;5072389;28;20049;-63
2022/04/25 04:12:59;;;;;;;14.07;7.18;;;7.80;99.90;;;;;;5072535;28;20041;-63
2022/04/25 04:15:25;;;;;;;15.90;7.72;;;7.80;99.90;;;;;;5073193;28;20044;-63
2022/04/25 04:17:51;;;;;;;11.25;7.25;;;7.70;99.90;;;;;;5073416;28;20385;-63
2022/04/25 04:20:16;;;;;;;15.18;7.68;;;7.70;99.90;;;;;;5055255;28;20135;-63
2022/04/25 04:22:42;;;;;;;10.82;7.22;;;7.70;99.90;;;;;;5072197;28;20086;-64
2022/04/25 04:25:14;;;;;;;14.45;8.07;;;7.70;99.90;;;;;;5071959;28;20053;-63
2022/04/25 04:27:41;;;;;;;11.13;6.97;;;7.70;99.90;;;;;;5072055;28;20510;-63
2022/04/25 04:30:11;;;;;;;13.95;8.02;;;7.70;99.90;;;;;;5071447;28;20051;-66
2022/04/25 04:32:40;;;;;;;11.90;7.60;;;7.70;99.90;;;;;;5072929;28;20048;-63
2022/04/25 04:35:09;;;;;;;14.93;7.70;;;7.60;99.90;;;;;;5073040;28;20041;-65
2022/04/25 04:37:36;;;;;;;15.05;7.97;;;7.70;99.90;;;;;;5073038;28;20123;-64
2022/04/25 04:42:46;;;;;;;13.40;7.93;;;7.60;99.90;;;;;;5071304;28;20056;-64
2022/04/25 04:45:12;;;;;;;12.52;7.85;;;7.50;99.90;;;;;;5072091;28;20063;-63
2022/04/25 04:47:39;;;;;;;11.85;7.72;;;7.50;99.90;;;;;;5071605;28;20067;-63
2022/04/25 04:50:14;;;;;;;13.07;8.18;;;7.50;99.90;;;;;;5071748;28;20122;-64
2022/04/25 04:52:45;;;;;;;11.30;8.57;;;7.50;99.90;;;;;;5071438;28;20054;-62
2022/04/25 04:55:11;;;;;;;13.00;8.02;;;7.50;99.90;;;;;;5071175;28;20048;-65
2022/04/25 04:57:38;;;;;;;13.80;8.10;;;7.60;99.90;;;;;;5071576;28;20053;-63
2022/04/25 05:00:06;;;;;;;11.77;8.00;;;7.60;99.90;;;;;;5071181;28;20052;-63
2022/04/25 05:02:32;;;;;;;13.18;7.82;;;7.60;99.90;;;;;;5072118;28;20083;-63
2022/04/25 05:04:57;;;;;;;11.90;7.75;;;7.70;99.90;;;;;;5054823;28;20182;-63
2022/04/25 05:07:23;;;;;;;15.25;8.73;;;7.60;99.90;;;;;;5070751;28;20458;-62
2022/04/25 05:09:49;;;;;;;13.98;7.80;;;7.60;99.90;;;;;;5070927;28;20056;-63
2022/04/25 05:12:14;;;;;;;16.85;8.95;;;7.60;99.90;;;;;;5071798;28;20087;-64
2022/04/25 05:14:41;;;;;;;15.00;8.95;;;7.60;99.90;;;;;;5072175;28;20146;-64
2022/04/25 05:17:06;;;;;;;12.18;7.90;;;7.60;99.90;;;;;;5071817;28;20470;-63
2022/04/25 05:19:32;;;;;;;12.10;7.93;;;7.60;99.90;;;;;;5071537;28;20047;-63
2022/04/25 05:21:58;;;;;;;11.82;8.00;;;7.60;99.90;;;;;;5054204;28;20048;-64
2022/04/25 05:24:23;;;;;;;11.60;8.00;;;7.60;99.90;;;;;;5053888;28;20064;-64
2022/04/25 05:26:49;;;;;;;14.45;8.02;;;7.60;99.90;;;;;;5070664;28;20044;-64
2022/04/25 05:29:14;;;;;;;12.02;7.25;;;7.60;99.90;;;;;;5069904;28;20045;-67
2022/04/25 05:31:40;;;;;;;11.52;7.35;;;7.70;99.90;;;;;;5071102;28;20047;-63
2022/04/25 05:34:06;;;;;;;11.45;7.75;;;7.70;99.90;;;;;;5070507;28;20060;-61
2022/04/25 05:36:32;;;;;;;10.68;8.25;;;7.80;99.90;;;;;;5071057;28;20654;-64
2022/04/25 05:38:57;;;;;;;17.17;8.85;;;7.70;99.90;;;;;;5070397;28;20040;-63
2022/04/25 05:41:23;;;;;;;14.23;9.10;;;7.70;99.90;;;;;;5071366;28;20479;-64
2022/04/25 05:43:49;;;;;;;16.48;9.00;;;7.70;99.90;;;;;;5071007;28;20110;-63
2022/04/25 05:46:15;;;;;;;18.70;8.98;;;7.70;99.90;;;;;;5071305;28;20052;-67
2022/04/25 05:54:12;;;;;;;10.88;8.38;;;7.70;99.90;;;;;;5070372;28;20413;-63
2022/04/25 05:56:39;;;;;;;12.82;8.55;;;7.80;99.90;;;;;;5070528;28;20166;-63
2022/04/25 05:59:05;;;;;;;15.63;9.40;;;7.80;99.90;;;;;;5053360;28;20075;-63
2022/04/25 06:01:30;;;;;;;19.17;9.30;;;7.80;99.90;;;;;;5069516;28;20056;-63
2022/04/25 06:03:56;;;;;;;15.80;9.15;;;7.80;99.90;;;;;;5071151;28;20045;-63
2022/04/25 06:06:23;;;;;;;13.13;8.55;;;7.80;99.90;;;;;;5069432;28;20255;-63
2022/04/25 06:08:50;;;;;;;14.10;8.30;;;7.80;99.90;;;;;;5071089;28;20060;-63
2022/04/25 06:11:15;;;;;;;13.80;8.93;;;7.80;99.90;;;;;;5069828;28;20127;-62
2022/04/25 06:13:44;;;;;;;12.25;8.23;;;7.80;99.90;;;;;;5052422;28;20152;-63
2022/04/25 06:16:11;;;;;;;12.95;8.52;;;7.80;99.90;;;;;;5069928;28;20555;-62
2022/04/25 06:18:37;;;;;;;13.68;8.35;;;7.80;99.90;;;;;;5070623;28;20040;-62
2022/04/25 06:21:03;;;;;;;15.32;8.75;;;7.90;99.90;;;;;;5069582;28;20059;-65
2022/04/25 06:23:30;;;;;;;14.60;8.65;;;7.90;99.90;;;;;;5070596;28;20052;-64
2022/04/25 06:25:56;;;;;;;13.75;8.60;;;7.90;99.90;;;;;;5070818;28;20044;-63
2022/04/25 06:28:24;;;;;;;14.18;8.57;;;7.90;99.90;;;;;;5052363;28;20067;-67
2022/04/25 06:30:51;;;;;;;12.30;8.50;;;7.90;99.90;;;;;;5069514;28;20040;-62
2022/04/25 06:33:17;;;;;;;11.63;7.82;;;7.90;99.90;;;;;;5053027;28;20068;-64
2022/04/25 06:35:44;;;;;;;11.68;8.20;;;7.90;99.90;;;;;;5069136;28;20052;-62
2022/04/25 06:38:11;;;;;;;12.82;8.60;;;7.90;99.90;;;;;;5069416;28;20041;-63
2022/04/25 06:40:37;;;;;;;13.18;7.93;;;7.90;99.90;;;;;;5070093;28;20045;-63
2022/04/25 06:43:04;;;;;;;15.13;8.27;;;8.00;99.90;;;;;;5069087;28;20554;-64
2022/04/25 06:45:30;;;;;;;10.13;8.40;;;7.90;99.90;;;;;;5070091;28;20044;-64
2022/04/25 06:47:56;;;;;;;14.55;8.32;;;7.90;99.90;;;;;;5070734;28;20401;-63
2022/04/25 06:50:23;;;;;;;15.88;9.05;;;7.90;99.90;;;;;;5070125;28;20504;-67
2022/04/25 06:52:49;;;;;;;11.40;8.60;;;7.90;99.90;;;;;;5069030;28;20048;-63
2022/04/25 06:55:15;;;;;;;15.77;8.48;;;7.90;99.90;;;;;;5069157;28;20045;-63
2022/04/25 06:57:41;;;;;;;14.07;8.80;;;7.90;99.90;;;;;;5068496;28;20049;-64
2022/04/25 07:00:08;;;;;;;15.98;9.52;;;7.90;99.90;;;;;;5070276;28;20383;-62
2022/04/25 07:02:38;;;;;;;13.82;8.45;;;7.90;99.90;;;;;;5068899;28;20045;-64
2022/04/25 07:05:07;;;;;;;18.67;10.20;;;7.90;99.90;;;;;;5069077;28;20127;-63
2022/04/25 07:07:33;;;;;;;14.38;8.80;;;7.90;99.90;;;;;;5068310;28;20045;-62
2022/04/25 07:09:59;;;;;;;14.20;9.63;;;7.90;99.90;;;;;;5073864;28;20056;-64
2022/04/25 07:12:25;;;;;;;14.10;8.63;;;8.00;99.90;;;;;;5073875;28;20071;-64
2022/04/25 07:14:50;;;;;;;10.88;8.43;;;8.00;99.90;;;;;;5073917;28;20143;-63
2022/04/25 07:17:16;;;;;;;13.85;8.95;;;8.10;99.90;;;;;;5072930;28;20059;-63
2022/04/25 07:19:42;;;;;;;14.50;8.25;;;8.10;99.90;;;;;;5073667;28;20076;-64
2022/04/25 07:30:22;;;;;;;14.38;6.10;;;8.20;99.90;;;;;;5072521;28;20609;-61
2022/04/25 07:32:48;;;;;;;12.57;6.60;;;8.20;99.90;;;;;;5072069;28;20048;-62
2022/04/25 07:35:14;;;;;;;10.70;5.82;;;8.10;99.90;;;;;;5073810;28;20501;-63
2022/04/25 07:37:39;;;;;;;13.13;6.85;;;8.20;99.90;;;;;;5073333;28;20119;-66
2022/04/25 07:40:08;;;;;;;13.57;6.55;;;8.20;99.90;;;;;;5073921;28;20086;-64
2022/04/25 07:42:38;;;;;;;12.10;6.75;;;8.20;99.90;;;;;;5073168;28;20135;-62
2022/04/25 07:45:05;;;;;;;10.43;6.85;;;8.10;99.90;;;;;;5073636;28;20049;-62
2022/04/25 07:47:32;;;;;;;10.18;6.15;;;8.20;99.90;;;;;;5072996;28;20130;-66
2022/04/25 07:49:58;;;;;;;11.13;6.15;;;8.20;99.90;;;;;;5073262;28;20056;-62
2022/04/25 07:52:24;;;;;;;7.93;5.00;;;8.10;99.90;;;;;;5071913;28;20106;-62
2022/04/25 07:54:52;;;;;;;10.18;4.72;;;8.20;99.90;;;;;;5072394;28;20256;-63
2022/04/25 07:57:19;;;;;;;10.02;4.78;;;8.20;99.90;;;;;;5072412;28;20053;-63
2022/04/25 07:59:45;;;;;;;8.70;4.85;;;8.20;99.90;;;;;;5073090;28;20437;-63
2022/04/25 08:02:10;;;;;;;9.65;5.05;;;8.20;99.90;;;;;;5073461;28;20493;-62
2022/04/25 08:04:36;;;;;;;9.35;4.40;;;8.30;99.90;;;;;;5071630;28;20090;-62
2022/04/25 08:07:02;;;;;;;11.43;4.53;;;8.40;99.90;;;;;;5071665;28;20051;-62
2022/04/25 08:09:28;;;;;;;8.93;4.25;;;8.40;99.90;;;;;;5073122;28;20044;-63
2022/04/25 08:17:56;;;;;;;10.48;4.50;;;8.60;99.90;;;;;;5072527;28;20049;-64
2022/04/25 08:20:09;;;;;;;5.70;4.18;;;9.30;99.90;;;;;;5071722;28;20152;-63
2022/04/25 08:22:35;;;;;;;11.68;3.88;;;9.20;99.90;;;;;;5072982;28;20060;-66
2022/04/25 08:25:02;;;;;;;9.35;4.20;;;9.20;99.90;;;;;;5072036;28;20139;-63
2022/04/25 08:27:27;;;;;;;7.72;4.38;;;9.10;99.90;;;;;;5072833;28;20105;-62
2022/04/25 08:29:53;;;;;;;6.78;3.97;;;9.20;99.90;;;;;;5072432;28;20056;-62
2022/04/25 08:32:19;;;;;;;9.43;4.80;;;9.20;99.90;;;;;;5071804;28;20048;-63
2022/04/25 08:34:45;;;;;;;10.05;4.57;;;9.40;99.90;;;;;;5072126;28;20049;-63
2022/04/25 08:37:11;;;;;;;11.55;4.20;;;9.40;99.90;;;;;;5072668;28;20048;-63
2022/04/25 08:39:36;;;;;;;8.98;4.20;;;9.60;99.90;;;;;;5071160;28;20096;-68
2022/04/25 08:42:03;;;;;;;8.88;4.20;;;10.10;99.90;;;;;;5072428;28;20509;-63
2022/04/25 08:44:30;;;;;;;11.50;4.85;;;10.20;99.90;;;;;;5070864;28;20132;-63
2022/04/25 08:46:59;;;;;;;8.90;4.22;;;10.20;99.90;;;;;;5070614;28;20094;-64
2022/04/25 08:49:26;;;;;;;8.25;4.70;;;10.20;99.90;;;;;;5072408;28;20088;-63
2022/04/25 08:51:58;;;;;;;8.55;4.95;;;10.20;99.90;;;;;;5070447;28;20048;-63
2022/04/25 08:54:32;;;;;;;8.52;4.47;;;10.20;99.90;;;;;;5071457;28;20048;-63
2022/04/25 08:56:58;;;;;;;8.23;4.40;;;10.20;99.90;;;;;;5053844;28;20036;-63
2022/04/25 08:59:26;;;;;;;9.80;4.50;;;10.40;99.90;;;;;;5072419;28;20449;-64
2022/04/25 09:01:53;;;;;;;8.05;4.35;;;10.70;99.90;;;;;;5071874;28;20044;-63
2022/04/25 09:04:19;;;;;;;8.07;4.07;;;10.80;99.90;;;;;;5072319;28;20056;-65
2022/04/25 09:06:47;;;;;;;11.73;4.53;;;10.70;99.90;;;;;;5054313;28;20079;-63
2022/04/25 09:09:13;;;;;;;10.00;4.70;;;10.50;99.90;;;;;;5072382;28;20102;-63
2022/04/25 09:14:24;;;;;;;8.38;4.15;;;10.50;99.90;;;;;;5071863;28;20491;-62
2022/04/25 09:16:51;;;;;;;8.75;4.43;;;10.50;99.90;;;;;;5071648;28;20094;-62
2022/04/25 09:19:17;;;;;;;9.10;3.63;;;10.50;99.90;;;;;;5054284;28;20052;-63
2022/04/25 09:21:45;;;;;;;8.43;3.53;;;10.50;99.90;;;;;;5070342;28;20044;-68
2022/04/25 09:24:24;;;;;;;10.48;4.28;;;10.40;99.90;;;;;;5070304;28;20049;-65
2022/04/25 09:26:52;;;;;;;9.63;4.30;;;10.40;99.90;;;;;;5070993;28;20482;-64
2022/04/25 09:29:25;;;;;;;8.10;3.67;;;10.40;99.90;;;;;;5071709;28;20052;-62
2022/04/25 09:31:51;;;;;;;6.57;4.07;;;10.30;99.90;;;;;;5070123;28;20561;-62
2022/04/25 09:34:59;;;;;;;5.85;3.83;;;10.40;99.90;;;;;;5070511;28;20048;-64
2022/04/25 09:37:06;;;;;;;10.30;4.13;;;10.40;99.90;;;;;;5070076;28;20279;-62
2022/04/25 09:39:32;;;;;;;8.80;3.55;;;10.50;99.90;;;;;;5070726;28;20044;-63
2022/04/25 09:41:59;;;;;;;6.65;4.05;;;10.70;99.90;;;;;;5069840;28;20059;-64
2022/04/25 09:44:26;;;;;;;10.23;4.00;;;10.80;99.90;;;;;;5070130;28;20063;-63
2022/04/25 09:46:52;;;;;;;8.63;4.13;;;10.80;99.90;;;;;;5071131;28;20098;-63
2022/04/25 09:49:21;;;;;;;6.68;3.70;;;10.90;99.90;;;;;;5071567;28;20040;-64
2022/04/25 09:52:05;;;;;;;8.77;3.72;;;11.00;99.90;;;;;;5071105;28;20131;-66
2022/04/25 09:54:31;;;;;;;5.97;3.05;;;11.00;99.90;;;;;;5071547;28;20100;-63
2022/04/25 09:56:57;;;;;;;8.25;4.03;;;11.10;99.90;;;;;;5070892;28;20064;-65
2022/04/25 09:59:22;;;;;;;6.60;3.45;;;11.30;99.90;;;;;;5071362;28;20478;-63
2022/04/25 10:02:07;;;;;;;6.68;3.70;;;11.50;99.90;;;;;;5070805;28;20048;-68
2022/04/25 10:04:36;;;;;;;6.85;3.88;;;11.70;99.90;;;;;;5071486;28;20127;-63
2022/04/25 10:07:05;;;;;;;6.95;3.83;;;11.80;99.90;;;;;;5070630;28;20056;-63
2022/04/25 10:09:34;;;;;;;7.95;4.18;;;11.90;99.90;;;;;;5070982;28;20048;-66
2022/04/25 10:12:02;;;;;;;6.43;3.35;;;12.00;99.90;;;;;;5070584;28;20052;-65
2022/04/25 10:14:28;;;;;;;8.73;5.03;;;12.10;99.90;;;;;;5071225;28;20475;-64
2022/04/25 10:16:58;;;;;;;6.95;3.65;;;12.30;99.90;;;;;;5052784;28;20052;-63
2022/04/25 10:19:25;;;;;;;8.38;3.55;;;12.50;99.90;;;;;;5069891;28;20048;-65
2022/04/25 10:21:56;;;;;;;7.70;3.40;;;12.70;99.90;;;;;;5070743;28;20089;-68
2022/04/25 10:24:22;;;;;;;7.57;3.25;;;12.80;99.90;;;;;;5069604;28;20398;-63
2022/04/25 10:26:49;;;;;;;5.70;3.75;;;12.80;99.90;;;;;;5069716;28;20044;-63
2022/04/25 10:29:19;;;;;;;7.32;3.40;;;12.70;99.90;;;;;;5070886;28;20048;-63
2022/04/25 10:31:48;;;;;;;7.20;3.50;;;12.60;99.90;;;;;;5071186;28;20379;-62
2022/04/25 10:34:14;;;;;;;8.07;3.97;;;12.50;99.90;;;;;;5070581;28;20052;-63
2022/04/25 10:36:40;;;;;;;5.97;3.50;;;12.40;99.90;;;;;;5069596;28;20136;-64
2022/04/25 10:39:13;;;;;;;6.00;3.35;;;12.40;99.90;;;;;;5070429;28;20055;-65
2022/04/25 10:44:26;;;;;;;5.68;3.70;;;12.40;99.90;;;;;;5073838;28;20056;-64
2022/04/25 10:47:04;;;;;;;4.95;3.92;;;12.40;99.90;;;;;;5075075;28;20058;-70
2022/04/25 10:49:42;;;;;;;5.28;3.35;;;12.50;99.90;;;;;;5057338;28;20056;-63
2022/04/25 10:52:53;;;;;;;5.05;3.42;;;12.60;99.90;;;;;;5073656;28;20060;-63
2022/04/25 10:55:35;;;;;;;5.70;3.63;;;12.70;99.90;;;;;;5074388;28;20494;-64
2022/04/25 10:58:03;;;;;;;5.82;3.80;;;12.80;99.90;;;;;;5074107;28;20102;-64
2022/04/25 11:00:41;;;;;;;5.53;3.30;;;12.80;99.90;;;;;;5074751;28;20045;-61
2022/04/25 11:03:15;;;;;;;6.57;3.45;;;12.90;99.90;;;;;;5074067;28;20101;-62
2022/04/25 11:05:50;;;;;;;6.95;3.25;;;13.00;99.90;;;;;;5073385;28;20055;-64
2022/04/25 11:08:19;;;;;;;7.30;3.70;;;13.00;99.90;;;;;;5073998;28;20167;-65
2022/04/25 11:10:52;;;;;;;9.20;3.63;;;12.90;99.90;;;;;;5073984;28;20443;-65
2022/04/25 11:13:22;;;;;;;6.85;3.97;;;12.90;99.90;;;;;;5073866;28;20049;-63
2022/04/25 11:15:49;;;;;;;7.78;3.67;;;12.90;99.90;;;;;;5074310;28;20402;-64
2022/04/25 11:18:36;;;;;;;5.60;3.90;;;12.90;99.90;;;;;;5074037;28;20665;-64
2022/04/25 11:21:07;;;;;;;6.43;3.47;;;12.90;99.90;;;;;;5073944;28;20095;-63
2022/04/25 11:23:53;;;;;;;7.55;3.50;;;12.90;99.90;;;;;;5074245;28;20056;-64
2022/04/25 11:26:21;;;;;;;6.18;3.47;;;12.90;99.90;;;;;;5073108;28;20095;-63
2022/04/25 11:28:58;;;;;;;6.75;3.60;;;13.00;99.90;;;;;;5073932;28;20136;-64
2022/04/25 11:31:28;;;;;;;10.00;4.13;;;13.00;99.90;;;;;;5073094;28;20127;-63
2022/04/25 11:33:56;;;;;;;9.05;4.22;;;13.00;99.90;;;;;;5073005;28;20099;-63
2022/04/25 11:36:24;;;;;;;8.68;3.95;;;13.00;99.90;;;;;;5074017;28;20080;-63
2022/04/25 11:41:38;;;;;;;9.02;4.13;;;13.00;99.90;;;;;;5073759;28;20067;-63
2022/04/25 11:44:05;;;;;;;9.82;4.15;;;13.00;99.90;;;;;;5072861;28;20053;-64
2022/04/25 11:46:32;;;;;;;9.27;3.90;;;13.10;99.90;;;;;;5073852;28;20175;-63
2022/04/25 11:48:58;;;;;;;10.00;4.50;;;13.10;99.90;;;;;;5072595;28;20048;-67
2022/04/25 11:51:29;;;;;;;10.52;4.10;;;13.10;99.90;;;;;;5073451;28;20041;-63
2022/04/25 11:53:59;;;;;;;7.38;4.35;;;13.10;99.90;;;;;;5055944;28;20493;-61
2022/04/25 11:56:26;;;;;;;10.55;4.25;;;13.20;99.90;;;;;;5072466;28;20127;-63
2022/04/25 11:58:54;;;;;;;6.15;4.30;;;13.20;99.90;;;;;;5072079;28;20052;-65
2022/04/25 12:01:47;;;;;;;8.63;4.32;;;13.20;99.90;;;;;;5071753;28;20120;-63
2022/04/25 12:04:15;;;;;;;12.23;4.63;;;13.00;99.90;;;;;;5071882;28;20120;-63
2022/04/25 12:07:03;;;;;;;10.52;5.38;;;13.00;99.90;;;;;;5072151;28;20044;-63
2022/04/25 12:15:34;;;;;;;6.60;4.07;;;12.90;99.90;;;;;;5071616;28;20060;-63
2022/04/25 12:18:25;;;;;;;7.68;4.55;;;13.00;99.90;;;;;;5073205;28;20482;-63
2022/04/25 12:20:59;;;;;;;264.65;29.60;;;12.90;99.90;;;;;;5065454;28;20061;-63
2022/04/25 12:23:29;;;;;;;14.80;5.10;;;13.00;99.90;;;;;;5072559;28;20115;-62
2022/04/25 12:25:55;;;;;;;13.45;4.78;;;13.10;99.90;;;;;;5072933;28;20045;-63
2022/04/25 12:28:23;;;;;;;22.15;6.43;;;13.00;99.90;;;;;;5072163;28;20052;-62
2022/04/25 12:30:54;;;;;;;10.02;4.60;;;13.00;99.90;;;;;;5073003;28;20048;-62
2022/04/25 12:33:31;;;;;;;7.80;4.50;;;13.00;99.90;;;;;;5054680;28;20482;-64
2022/04/25 12:36:14;;;;;;;9.75;5.03;;;13.10;99.90;;;;;;5072694;28;20495;-62
2022/04/25 12:39:09;;;;;;;6.10;4.22;;;13.30;99.90;;;;;;5072934;28;20084;-63
2022/04/25 12:41:41;;;;;;;9.13;4.53;;;13.50;99.90;;;;;;5072952;28;20401;-62
2022/04/25 12:44:10;;;;;;;7.32;4.55;;;13.60;99.90;;;;;;5071364;28;20056;-64
2022/04/25 12:46:39;;;;;;;7.68;4.00;;;13.40;99.90;;;;;;5072141;28;20397;-63
2022/04/25 12:49:12;;;;;;;12.30;4.93;;;13.50;99.90;;;;;;5072463;28;20055;-65
2022/04/25 12:51:55;;;;;;;6.20;4.00;;;13.40;99.90;;;;;;5073072;28;20428;-62
2022/04/25 12:54:31;;;;;;;7.57;4.32;;;13.30;99.90;;;;;;5071695;28;20569;-67
2022/04/25 12:57:16;;;;;;;10.30;4.75;;;13.30;99.90;;;;;;5072298;28;20044;-62
2022/04/25 12:59:48;;;;;;;6.68;4.18;;;13.30;99.90;;;;;;5072495;28;20131;-63
2022/04/25 13:02:17;;;;;;;8.13;4.60;;;13.20;99.90;;;;;;5070747;28;20055;-65
2022/04/25 13:04:57;;;;;;;8.52;5.18;;;13.20;99.90;;;;;;5072342;28;20040;-62
2022/04/25 13:07:31;;;;;;;8.55;4.70;;;13.30;99.90;;;;;;5071866;28;20044;-63
2022/04/25 13:09:59;;;;;;;6.53;4.13;;;13.30;99.90;;;;;;5072175;28;20052;-64
2022/04/25 13:12:37;;;;;;;10.40;4.38;;;13.50;99.90;;;;;;5071885;28;20105;-63
2022/04/25 13:15:05;;;;;;;8.02;4.43;;;13.60;99.90;;;;;;5071092;28;20044;-63
2022/04/25 13:17:30;;;;;;;7.57;4.38;;;13.80;99.90;;;;;;5070904;28;20048;-64
2022/04/25 13:19:56;;;;;;;11.98;4.65;;;13.90;99.90;;;;;;5072287;28;20052;-63
2022/04/25 13:22:22;;;;;;;8.27;5.07;;;14.00;99.90;;;;;;5071837;28;20044;-63
2022/04/25 13:24:49;;;;;;;9.05;5.28;;;14.00;99.90;;;;;;5071016;28;20044;-61
2022/04/25 13:27:15;;;;;;;7.38;4.80;;;13.90;99.90;;;;;;5070459;28;20443;-63
2022/04/25 13:29:42;;;;;;;10.57;4.70;;;13.90;99.90;;;;;;5072005;28;20127;-62
2022/04/25 13:32:11;;;;;;;8.70;5.43;;;13.90;99.90;;;;;;5071945;28;20051;-63
2022/04/25 13:34:37;;;;;;;11.40;5.75;;;14.00;99.90;;;;;;5071837;28;20128;-62